sensor_id;sensor_type;location;lat;lon;timestamp;P1;durP1;ratioP1;P2;durP2;ratioP2
79375;SDS011;68846;53.150;18.136;2023-12-04T00:00:35;17.20;;;8.00;;
79375;SDS011;68846;53.150;18.136;2023-12-04T00:03:24;19.00;;;8.40;;
79375;SDS011;68846;53.150;18.136;2023-12-04T00:05:52;19.20;;;8.80;;
79375;SDS011;68846;53.150;18.136;2023-12-04T00:08:20;14.30;;;6.40;;
79375;SDS011;68846;53.150;18.136;2023-12-04T00:10:47;17.40;;;7.80;;
79375;SDS011;68846;53.150;18.136;2023-12-04T00:13:16;20.20;;;8.30;;
79375;SDS011;68846;53.150;18.136;2023-12-04T00:15:44;20.10;;;8.60;;
79375;SDS011;68846;53.150;18.136;2023-12-04T00:18:14;19.30;;;8.60;;
79375;SDS011;68846;53.150;18.136;2023-12-04T00:20:42;18.50;;;9.40;;
79375;SDS011;68846;53.150;18.136;2023-12-04T00:23:10;17.40;;;8.70;;
79375;SDS011;68846;53.150;18.136;2023-12-04T00:25:38;16.20;;;7.90;;
79375;SDS011;68846;53.150;18.136;2023-12-04T00:28:06;17.30;;;7.90;;
79375;SDS011;68846;53.150;18.136;2023-12-04T00:30:34;14.90;;;8.60;;
79375;SDS011;68846;53.150;18.136;2023-12-04T00:33:02;14.10;;;7.60;;
79375;SDS011;68846;53.150;18.136;2023-12-04T00:35:30;16.10;;;8.00;;
79375;SDS011;68846;53.150;18.136;2023-12-04T00:37:58;14.90;;;7.50;;
79375;SDS011;68846;53.150;18.136;2023-12-04T00:40:26;17.40;;;8.00;;
79375;SDS011;68846;53.150;18.136;2023-12-04T00:42:54;17.10;;;8.20;;
79375;SDS011;68846;53.150;18.136;2023-12-04T00:45:22;17.00;;;7.50;;
79375;SDS011;68846;53.150;18.136;2023-12-04T00:47:50;15.10;;;7.40;;
79375;SDS011;68846;53.150;18.136;2023-12-04T00:50:17;15.80;;;7.50;;
79375;SDS011;68846;53.150;18.136;2023-12-04T00:52:45;14.90;;;7.50;;
79375;SDS011;68846;53.150;18.136;2023-12-04T00:55:13;17.80;;;7.70;;
79375;SDS011;68846;53.150;18.136;2023-12-04T00:57:41;15.40;;;7.30;;
79375;SDS011;68846;53.150;18.136;2023-12-04T01:00:10;17.00;;;8.10;;
79375;SDS011;68846;53.150;18.136;2023-12-04T01:02:38;15.80;;;7.80;;
79375;SDS011;68846;53.150;18.136;2023-12-04T01:05:07;14.80;;;7.90;;
79375;SDS011;68846;53.150;18.136;2023-12-04T01:07:35;16.50;;;7.70;;
79375;SDS011;68846;53.150;18.136;2023-12-04T01:10:04;17.40;;;6.70;;
79375;SDS011;68846;53.150;18.136;2023-12-04T01:12:33;17.00;;;8.20;;
79375;SDS011;68846;53.150;18.136;2023-12-04T01:15:01;14.00;;;7.90;;
79375;SDS011;68846;53.150;18.136;2023-12-04T01:17:30;15.70;;;8.30;;
79375;SDS011;68846;53.150;18.136;2023-12-04T01:19:58;17.50;;;8.60;;
79375;SDS011;68846;53.150;18.136;2023-12-04T01:22:26;17.00;;;7.80;;
79375;SDS011;68846;53.150;18.136;2023-12-04T01:24:53;18.40;;;7.90;;
79375;SDS011;68846;53.150;18.136;2023-12-04T01:27:22;14.90;;;7.80;;
79375;SDS011;68846;53.150;18.136;2023-12-04T01:29:50;14.60;;;7.30;;
79375;SDS011;68846;53.150;18.136;2023-12-04T01:32:18;16.30;;;7.70;;
79375;SDS011;68846;53.150;18.136;2023-12-04T01:34:46;14.90;;;7.10;;
79375;SDS011;68846;53.150;18.136;2023-12-04T01:37:14;16.20;;;8.10;;
79375;SDS011;68846;53.150;18.136;2023-12-04T01:39:42;14.00;;;7.10;;
79375;SDS011;68846;53.150;18.136;2023-12-04T01:42:10;14.20;;;7.20;;
79375;SDS011;68846;53.150;18.136;2023-12-04T01:44:38;17.60;;;8.20;;
79375;SDS011;68846;53.150;18.136;2023-12-04T01:47:06;19.10;;;8.90;;
79375;SDS011;68846;53.150;18.136;2023-12-04T01:49:35;20.90;;;8.20;;
79375;SDS011;68846;53.150;18.136;2023-12-04T01:52:04;21.90;;;8.40;;
79375;SDS011;68846;53.150;18.136;2023-12-04T01:54:33;16.80;;;6.90;;
79375;SDS011;68846;53.150;18.136;2023-12-04T01:57:02;14.80;;;7.40;;
79375;SDS011;68846;53.150;18.136;2023-12-04T01:59:31;15.00;;;7.10;;
79375;SDS011;68846;53.150;18.136;2023-12-04T02:02:00;17.50;;;7.80;;
79375;SDS011;68846;53.150;18.136;2023-12-04T02:04:30;16.40;;;8.00;;
79375;SDS011;68846;53.150;18.136;2023-12-04T02:06:58;14.60;;;7.30;;
79375;SDS011;68846;53.150;18.136;2023-12-04T02:09:26;11.90;;;6.30;;
79375;SDS011;68846;53.150;18.136;2023-12-04T02:11:55;13.60;;;7.20;;
79375;SDS011;68846;53.150;18.136;2023-12-04T02:14:23;13.90;;;7.10;;
79375;SDS011;68846;53.150;18.136;2023-12-04T02:16:50;14.30;;;6.80;;
79375;SDS011;68846;53.150;18.136;2023-12-04T02:19:21;11.60;;;6.10;;
79375;SDS011;68846;53.150;18.136;2023-12-04T02:21:49;19.70;;;9.70;;
79375;SDS011;68846;53.150;18.136;2023-12-04T02:24:17;18.70;;;8.10;;
79375;SDS011;68846;53.150;18.136;2023-12-04T02:26:47;14.40;;;7.40;;
79375;SDS011;68846;53.150;18.136;2023-12-04T02:29:28;13.20;;;6.70;;
79375;SDS011;68846;53.150;18.136;2023-12-04T02:31:59;17.90;;;7.70;;
79375;SDS011;68846;53.150;18.136;2023-12-04T02:34:32;16.40;;;7.20;;
79375;SDS011;68846;53.150;18.136;2023-12-04T02:37:01;14.20;;;6.80;;
79375;SDS011;68846;53.150;18.136;2023-12-04T02:39:31;16.00;;;7.30;;
79375;SDS011;68846;53.150;18.136;2023-12-04T02:41:59;14.80;;;7.70;;
79375;SDS011;68846;53.150;18.136;2023-12-04T02:44:27;15.60;;;7.90;;
79375;SDS011;68846;53.150;18.136;2023-12-04T02:46:55;15.80;;;7.50;;
79375;SDS011;68846;53.150;18.136;2023-12-04T02:49:23;13.40;;;6.60;;
79375;SDS011;68846;53.150;18.136;2023-12-04T02:51:51;18.00;;;7.40;;
79375;SDS011;68846;53.150;18.136;2023-12-04T02:54:19;15.20;;;7.10;;
79375;SDS011;68846;53.150;18.136;2023-12-04T02:56:47;12.50;;;5.80;;
79375;SDS011;68846;53.150;18.136;2023-12-04T02:59:14;13.70;;;7.00;;
79375;SDS011;68846;53.150;18.136;2023-12-04T03:01:42;16.30;;;7.40;;
79375;SDS011;68846;53.150;18.136;2023-12-04T03:04:11;17.80;;;8.40;;
79375;SDS011;68846;53.150;18.136;2023-12-04T03:06:39;17.50;;;7.80;;
79375;SDS011;68846;53.150;18.136;2023-12-04T03:09:06;17.20;;;7.70;;
79375;SDS011;68846;53.150;18.136;2023-12-04T03:11:34;13.70;;;7.00;;
79375;SDS011;68846;53.150;18.136;2023-12-04T03:14:03;15.80;;;7.10;;
79375;SDS011;68846;53.150;18.136;2023-12-04T03:16:31;15.90;;;7.40;;
79375;SDS011;68846;53.150;18.136;2023-12-04T03:18:59;15.20;;;7.40;;
79375;SDS011;68846;53.150;18.136;2023-12-04T03:21:26;15.80;;;7.20;;
79375;SDS011;68846;53.150;18.136;2023-12-04T03:23:56;19.40;;;7.70;;
79375;SDS011;68846;53.150;18.136;2023-12-04T03:26:24;14.90;;;7.20;;
79375;SDS011;68846;53.150;18.136;2023-12-04T03:28:51;17.80;;;8.00;;
79375;SDS011;68846;53.150;18.136;2023-12-04T03:31:19;14.70;;;7.10;;
79375;SDS011;68846;53.150;18.136;2023-12-04T03:33:48;15.30;;;7.20;;
79375;SDS011;68846;53.150;18.136;2023-12-04T03:36:16;15.30;;;6.90;;
79375;SDS011;68846;53.150;18.136;2023-12-04T03:38:44;16.10;;;7.30;;
79375;SDS011;68846;53.150;18.136;2023-12-04T03:41:15;15.50;;;7.60;;
79375;SDS011;68846;53.150;18.136;2023-12-04T03:43:43;20.20;;;8.10;;
79375;SDS011;68846;53.150;18.136;2023-12-04T03:46:12;19.40;;;8.10;;
79375;SDS011;68846;53.150;18.136;2023-12-04T03:48:40;14.10;;;6.60;;
79375;SDS011;68846;53.150;18.136;2023-12-04T03:51:07;14.00;;;6.70;;
79375;SDS011;68846;53.150;18.136;2023-12-04T03:53:35;16.00;;;7.20;;
79375;SDS011;68846;53.150;18.136;2023-12-04T03:56:04;15.50;;;7.20;;
79375;SDS011;68846;53.150;18.136;2023-12-04T03:58:32;16.20;;;7.80;;
79375;SDS011;68846;53.150;18.136;2023-12-04T04:00:59;14.70;;;7.30;;
79375;SDS011;68846;53.150;18.136;2023-12-04T04:03:27;13.60;;;6.10;;
79375;SDS011;68846;53.150;18.136;2023-12-04T04:05:55;15.70;;;7.30;;
79375;SDS011;68846;53.150;18.136;2023-12-04T04:08:23;15.50;;;6.20;;
79375;SDS011;68846;53.150;18.136;2023-12-04T04:10:51;13.60;;;5.70;;
79375;SDS011;68846;53.150;18.136;2023-12-04T04:13:19;12.30;;;6.50;;
79375;SDS011;68846;53.150;18.136;2023-12-04T04:15:47;12.60;;;7.00;;
79375;SDS011;68846;53.150;18.136;2023-12-04T04:18:40;14.60;;;7.30;;
79375;SDS011;68846;53.150;18.136;2023-12-04T04:21:08;15.90;;;6.60;;
79375;SDS011;68846;53.150;18.136;2023-12-04T04:23:36;15.10;;;7.60;;
79375;SDS011;68846;53.150;18.136;2023-12-04T04:26:04;16.30;;;8.10;;
79375;SDS011;68846;53.150;18.136;2023-12-04T04:28:32;14.40;;;7.50;;
79375;SDS011;68846;53.150;18.136;2023-12-04T04:31:00;14.80;;;7.30;;
79375;SDS011;68846;53.150;18.136;2023-12-04T04:33:28;15.00;;;7.30;;
79375;SDS011;68846;53.150;18.136;2023-12-04T04:35:55;12.40;;;7.30;;
79375;SDS011;68846;53.150;18.136;2023-12-04T04:38:23;14.10;;;6.60;;
79375;SDS011;68846;53.150;18.136;2023-12-04T04:40:51;13.70;;;7.30;;
79375;SDS011;68846;53.150;18.136;2023-12-04T04:43:20;14.20;;;6.90;;
79375;SDS011;68846;53.150;18.136;2023-12-04T04:45:47;14.60;;;7.00;;
79375;SDS011;68846;53.150;18.136;2023-12-04T04:48:15;11.80;;;6.50;;
79375;SDS011;68846;53.150;18.136;2023-12-04T04:50:43;17.00;;;6.70;;
79375;SDS011;68846;53.150;18.136;2023-12-04T04:53:11;16.30;;;7.80;;
79375;SDS011;68846;53.150;18.136;2023-12-04T04:55:39;12.40;;;6.50;;
79375;SDS011;68846;53.150;18.136;2023-12-04T04:58:07;15.50;;;7.70;;
79375;SDS011;68846;53.150;18.136;2023-12-04T05:00:35;17.00;;;7.80;;
79375;SDS011;68846;53.150;18.136;2023-12-04T05:03:02;18.00;;;8.70;;
79375;SDS011;68846;53.150;18.136;2023-12-04T05:05:30;21.50;;;8.80;;
79375;SDS011;68846;53.150;18.136;2023-12-04T05:07:59;16.90;;;7.70;;
79375;SDS011;68846;53.150;18.136;2023-12-04T05:10:27;16.10;;;7.50;;
79375;SDS011;68846;53.150;18.136;2023-12-04T05:12:55;19.80;;;9.00;;
79375;SDS011;68846;53.150;18.136;2023-12-04T05:15:23;17.60;;;7.50;;
79375;SDS011;68846;53.150;18.136;2023-12-04T05:17:51;16.50;;;7.80;;
79375;SDS011;68846;53.150;18.136;2023-12-04T05:20:19;18.50;;;7.60;;
79375;SDS011;68846;53.150;18.136;2023-12-04T05:22:47;19.30;;;8.20;;
79375;SDS011;68846;53.150;18.136;2023-12-04T05:25:16;17.30;;;8.50;;
79375;SDS011;68846;53.150;18.136;2023-12-04T05:27:43;19.00;;;8.30;;
79375;SDS011;68846;53.150;18.136;2023-12-04T05:30:11;18.80;;;8.10;;
79375;SDS011;68846;53.150;18.136;2023-12-04T05:32:39;16.70;;;7.40;;
79375;SDS011;68846;53.150;18.136;2023-12-04T05:35:07;17.20;;;8.00;;
79375;SDS011;68846;53.150;18.136;2023-12-04T05:37:35;19.10;;;8.60;;
79375;SDS011;68846;53.150;18.136;2023-12-04T05:40:03;21.00;;;10.50;;
79375;SDS011;68846;53.150;18.136;2023-12-04T05:42:32;17.90;;;7.90;;
79375;SDS011;68846;53.150;18.136;2023-12-04T05:45:00;22.60;;;9.40;;
79375;SDS011;68846;53.150;18.136;2023-12-04T05:47:28;19.00;;;9.20;;
79375;SDS011;68846;53.150;18.136;2023-12-04T05:49:57;21.50;;;8.40;;
79375;SDS011;68846;53.150;18.136;2023-12-04T05:52:25;20.70;;;9.20;;
79375;SDS011;68846;53.150;18.136;2023-12-04T05:54:53;17.00;;;8.70;;
79375;SDS011;68846;53.150;18.136;2023-12-04T05:57:22;19.60;;;9.30;;
79375;SDS011;68846;53.150;18.136;2023-12-04T05:59:50;17.80;;;8.40;;
79375;SDS011;68846;53.150;18.136;2023-12-04T06:02:18;20.80;;;8.80;;
79375;SDS011;68846;53.150;18.136;2023-12-04T06:04:46;19.90;;;8.80;;
79375;SDS011;68846;53.150;18.136;2023-12-04T06:07:14;15.60;;;8.70;;
79375;SDS011;68846;53.150;18.136;2023-12-04T06:09:42;21.00;;;8.80;;
79375;SDS011;68846;53.150;18.136;2023-12-04T06:12:10;21.90;;;8.90;;
79375;SDS011;68846;53.150;18.136;2023-12-04T06:14:38;19.50;;;9.00;;
79375;SDS011;68846;53.150;18.136;2023-12-04T06:17:06;17.60;;;9.20;;
79375;SDS011;68846;53.150;18.136;2023-12-04T06:19:34;22.60;;;10.20;;
79375;SDS011;68846;53.150;18.136;2023-12-04T06:22:02;22.60;;;10.40;;
79375;SDS011;68846;53.150;18.136;2023-12-04T06:24:30;18.10;;;8.60;;
79375;SDS011;68846;53.150;18.136;2023-12-04T06:26:59;20.10;;;9.60;;
79375;SDS011;68846;53.150;18.136;2023-12-04T06:29:27;20.60;;;8.90;;
79375;SDS011;68846;53.150;18.136;2023-12-04T06:31:56;20.50;;;10.10;;
79375;SDS011;68846;53.150;18.136;2023-12-04T06:34:24;21.70;;;9.20;;
79375;SDS011;68846;53.150;18.136;2023-12-04T06:36:52;18.70;;;9.20;;
79375;SDS011;68846;53.150;18.136;2023-12-04T06:39:22;18.60;;;8.70;;
79375;SDS011;68846;53.150;18.136;2023-12-04T06:41:53;23.80;;;9.20;;
79375;SDS011;68846;53.150;18.136;2023-12-04T06:44:22;21.60;;;9.60;;
79375;SDS011;68846;53.150;18.136;2023-12-04T06:46:50;19.60;;;9.00;;
79375;SDS011;68846;53.150;18.136;2023-12-04T06:49:20;17.40;;;8.50;;
79375;SDS011;68846;53.150;18.136;2023-12-04T06:51:49;20.10;;;8.90;;
79375;SDS011;68846;53.150;18.136;2023-12-04T06:54:17;19.90;;;9.30;;
79375;SDS011;68846;53.150;18.136;2023-12-04T06:56:45;22.40;;;9.60;;
79375;SDS011;68846;53.150;18.136;2023-12-04T06:59:13;20.80;;;9.80;;
79375;SDS011;68846;53.150;18.136;2023-12-04T07:01:41;21.40;;;9.50;;
79375;SDS011;68846;53.150;18.136;2023-12-04T07:04:10;23.40;;;10.70;;
79375;SDS011;68846;53.150;18.136;2023-12-04T07:06:38;21.10;;;9.40;;
79375;SDS011;68846;53.150;18.136;2023-12-04T07:09:07;21.00;;;9.40;;
79375;SDS011;68846;53.150;18.136;2023-12-04T07:11:36;19.40;;;9.90;;
79375;SDS011;68846;53.150;18.136;2023-12-04T07:14:28;19.90;;;9.90;;
79375;SDS011;68846;53.150;18.136;2023-12-04T07:16:56;20.20;;;9.80;;
79375;SDS011;68846;53.150;18.136;2023-12-04T07:19:24;20.70;;;10.20;;
79375;SDS011;68846;53.150;18.136;2023-12-04T07:21:53;21.30;;;9.30;;
79375;SDS011;68846;53.150;18.136;2023-12-04T07:24:20;18.80;;;9.40;;
79375;SDS011;68846;53.150;18.136;2023-12-04T07:26:48;21.40;;;9.70;;
79375;SDS011;68846;53.150;18.136;2023-12-04T07:29:16;22.00;;;9.80;;
79375;SDS011;68846;53.150;18.136;2023-12-04T07:31:45;21.20;;;9.80;;
79375;SDS011;68846;53.150;18.136;2023-12-04T07:34:13;23.20;;;9.60;;
79375;SDS011;68846;53.150;18.136;2023-12-04T07:36:41;20.80;;;10.40;;
79375;SDS011;68846;53.150;18.136;2023-12-04T07:39:08;24.70;;;10.70;;
79375;SDS011;68846;53.150;18.136;2023-12-04T07:41:38;25.10;;;10.60;;
79375;SDS011;68846;53.150;18.136;2023-12-04T07:44:05;25.60;;;11.10;;
79375;SDS011;68846;53.150;18.136;2023-12-04T07:46:33;23.50;;;10.00;;
79375;SDS011;68846;53.150;18.136;2023-12-04T07:49:02;25.30;;;10.70;;
79375;SDS011;68846;53.150;18.136;2023-12-04T07:51:31;23.40;;;10.90;;
79375;SDS011;68846;53.150;18.136;2023-12-04T07:54:00;20.10;;;9.50;;
79375;SDS011;68846;53.150;18.136;2023-12-04T07:56:27;26.00;;;10.80;;
79375;SDS011;68846;53.150;18.136;2023-12-04T07:58:55;19.30;;;8.90;;
79375;SDS011;68846;53.150;18.136;2023-12-04T08:01:23;26.10;;;9.90;;
79375;SDS011;68846;53.150;18.136;2023-12-04T08:03:54;21.00;;;9.70;;
79375;SDS011;68846;53.150;18.136;2023-12-04T08:06:22;18.50;;;9.60;;
79375;SDS011;68846;53.150;18.136;2023-12-04T08:08:50;22.80;;;10.80;;
79375;SDS011;68846;53.150;18.136;2023-12-04T08:11:20;27.00;;;11.40;;
79375;SDS011;68846;53.150;18.136;2023-12-04T08:13:47;26.10;;;11.00;;
79375;SDS011;68846;53.150;18.136;2023-12-04T08:16:15;23.60;;;11.00;;
79375;SDS011;68846;53.150;18.136;2023-12-04T08:18:44;25.00;;;11.40;;
79375;SDS011;68846;53.150;18.136;2023-12-04T08:21:12;22.50;;;10.20;;
79375;SDS011;68846;53.150;18.136;2023-12-04T08:23:41;25.00;;;11.30;;
79375;SDS011;68846;53.150;18.136;2023-12-04T08:26:10;24.80;;;11.00;;
79375;SDS011;68846;53.150;18.136;2023-12-04T08:28:38;25.80;;;11.10;;
79375;SDS011;68846;53.150;18.136;2023-12-04T08:31:10;25.20;;;11.60;;
79375;SDS011;68846;53.150;18.136;2023-12-04T08:33:38;24.60;;;11.40;;
79375;SDS011;68846;53.150;18.136;2023-12-04T08:36:07;23.60;;;10.70;;
79375;SDS011;68846;53.150;18.136;2023-12-04T08:38:35;25.80;;;11.70;;
79375;SDS011;68846;53.150;18.136;2023-12-04T08:41:04;25.40;;;11.10;;
79375;SDS011;68846;53.150;18.136;2023-12-04T08:43:33;21.50;;;10.50;;
79375;SDS011;68846;53.150;18.136;2023-12-04T08:46:01;24.10;;;11.10;;
79375;SDS011;68846;53.150;18.136;2023-12-04T08:48:29;23.60;;;10.10;;
79375;SDS011;68846;53.150;18.136;2023-12-04T08:50:57;26.40;;;11.60;;
79375;SDS011;68846;53.150;18.136;2023-12-04T08:53:25;21.90;;;10.10;;
79375;SDS011;68846;53.150;18.136;2023-12-04T08:55:53;26.70;;;11.20;;
79375;SDS011;68846;53.150;18.136;2023-12-04T08:58:21;24.90;;;11.20;;
79375;SDS011;68846;53.150;18.136;2023-12-04T09:00:49;26.70;;;10.90;;
79375;SDS011;68846;53.150;18.136;2023-12-04T09:03:17;28.00;;;11.30;;
79375;SDS011;68846;53.150;18.136;2023-12-04T09:05:46;27.00;;;10.80;;
79375;SDS011;68846;53.150;18.136;2023-12-04T09:08:18;22.90;;;10.50;;
79375;SDS011;68846;53.150;18.136;2023-12-04T09:10:46;23.10;;;10.00;;
79375;SDS011;68846;53.150;18.136;2023-12-04T09:13:15;22.50;;;10.60;;
79375;SDS011;68846;53.150;18.136;2023-12-04T09:15:42;24.60;;;11.10;;
79375;SDS011;68846;53.150;18.136;2023-12-04T09:18:10;25.90;;;10.80;;
79375;SDS011;68846;53.150;18.136;2023-12-04T09:20:38;22.10;;;10.70;;
79375;SDS011;68846;53.150;18.136;2023-12-04T09:23:06;24.60;;;11.00;;
79375;SDS011;68846;53.150;18.136;2023-12-04T09:25:33;24.80;;;11.10;;
79375;SDS011;68846;53.150;18.136;2023-12-04T09:28:02;25.10;;;10.80;;
79375;SDS011;68846;53.150;18.136;2023-12-04T09:30:30;25.70;;;10.30;;
79375;SDS011;68846;53.150;18.136;2023-12-04T09:32:57;25.30;;;9.70;;
79375;SDS011;68846;53.150;18.136;2023-12-04T09:35:25;21.70;;;10.20;;
79375;SDS011;68846;53.150;18.136;2023-12-04T09:37:54;23.70;;;9.60;;
79375;SDS011;68846;53.150;18.136;2023-12-04T09:40:23;29.90;;;11.60;;
79375;SDS011;68846;53.150;18.136;2023-12-04T09:42:51;26.70;;;10.70;;
79375;SDS011;68846;53.150;18.136;2023-12-04T09:45:19;27.30;;;11.20;;
79375;SDS011;68846;53.150;18.136;2023-12-04T09:47:48;25.20;;;11.30;;
79375;SDS011;68846;53.150;18.136;2023-12-04T09:50:17;30.70;;;10.60;;
79375;SDS011;68846;53.150;18.136;2023-12-04T09:52:49;28.20;;;11.50;;
79375;SDS011;68846;53.150;18.136;2023-12-04T09:55:18;23.60;;;11.40;;
79375;SDS011;68846;53.150;18.136;2023-12-04T09:57:48;28.60;;;11.80;;
79375;SDS011;68846;53.150;18.136;2023-12-04T10:00:17;25.60;;;11.30;;
79375;SDS011;68846;53.150;18.136;2023-12-04T10:02:47;23.40;;;11.30;;
79375;SDS011;68846;53.150;18.136;2023-12-04T10:05:16;27.50;;;12.50;;
79375;SDS011;68846;53.150;18.136;2023-12-04T10:07:43;24.00;;;11.10;;
79375;SDS011;68846;53.150;18.136;2023-12-04T10:10:11;26.60;;;11.60;;
79375;SDS011;68846;53.150;18.136;2023-12-04T10:12:43;26.10;;;11.70;;
79375;SDS011;68846;53.150;18.136;2023-12-04T10:15:11;26.80;;;11.30;;
79375;SDS011;68846;53.150;18.136;2023-12-04T10:17:41;30.50;;;12.20;;
79375;SDS011;68846;53.150;18.136;2023-12-04T10:22:57;30.70;;;12.00;;
79375;SDS011;68846;53.150;18.136;2023-12-04T10:25:29;23.20;;;11.70;;
79375;SDS011;68846;53.150;18.136;2023-12-04T10:28:12;27.50;;;12.10;;
79375;SDS011;68846;53.150;18.136;2023-12-04T10:30:42;30.70;;;13.00;;
79375;SDS011;68846;53.150;18.136;2023-12-04T10:33:10;31.20;;;14.00;;
79375;SDS011;68846;53.150;18.136;2023-12-04T10:35:37;29.90;;;13.70;;
79375;SDS011;68846;53.150;18.136;2023-12-04T10:38:06;28.50;;;13.30;;
79375;SDS011;68846;53.150;18.136;2023-12-04T10:40:36;35.20;;;13.70;;
79375;SDS011;68846;53.150;18.136;2023-12-04T10:45:39;30.60;;;13.80;;
79375;SDS011;68846;53.150;18.136;2023-12-04T10:48:09;30.30;;;12.60;;
79375;SDS011;68846;53.150;18.136;2023-12-04T10:50:39;34.40;;;13.10;;
79375;SDS011;68846;53.150;18.136;2023-12-04T10:53:10;30.30;;;13.40;;
79375;SDS011;68846;53.150;18.136;2023-12-04T10:55:40;38.40;;;14.50;;
79375;SDS011;68846;53.150;18.136;2023-12-04T10:58:11;33.00;;;13.70;;
79375;SDS011;68846;53.150;18.136;2023-12-04T11:00:48;28.60;;;13.80;;
79375;SDS011;68846;53.150;18.136;2023-12-04T11:03:25;35.10;;;13.70;;
79375;SDS011;68846;53.150;18.136;2023-12-04T11:06:00;29.80;;;14.20;;
79375;SDS011;68846;53.150;18.136;2023-12-04T11:08:29;29.30;;;12.50;;
79375;SDS011;68846;53.150;18.136;2023-12-04T11:11:08;29.60;;;13.50;;
79375;SDS011;68846;53.150;18.136;2023-12-04T11:13:41;31.10;;;13.80;;
79375;SDS011;68846;53.150;18.136;2023-12-04T11:22:14;32.70;;;14.00;;
79375;SDS011;68846;53.150;18.136;2023-12-04T11:24:47;31.10;;;14.40;;
79375;SDS011;68846;53.150;18.136;2023-12-04T11:27:18;34.50;;;14.40;;
79375;SDS011;68846;53.150;18.136;2023-12-04T11:29:47;36.10;;;14.50;;
79375;SDS011;68846;53.150;18.136;2023-12-04T11:32:18;35.60;;;13.50;;
79375;SDS011;68846;53.150;18.136;2023-12-04T11:34:50;35.50;;;14.40;;
79375;SDS011;68846;53.150;18.136;2023-12-04T11:37:20;37.80;;;16.00;;
79375;SDS011;68846;53.150;18.136;2023-12-04T11:39:51;33.20;;;14.90;;
79375;SDS011;68846;53.150;18.136;2023-12-04T11:42:23;38.20;;;16.00;;
79375;SDS011;68846;53.150;18.136;2023-12-04T11:44:57;39.00;;;15.50;;
79375;SDS011;68846;53.150;18.136;2023-12-04T11:47:27;31.60;;;14.90;;
79375;SDS011;68846;53.150;18.136;2023-12-04T11:49:57;31.90;;;14.70;;
79375;SDS011;68846;53.150;18.136;2023-12-04T11:52:34;36.40;;;15.20;;
79375;SDS011;68846;53.150;18.136;2023-12-04T11:55:05;37.20;;;14.30;;
79375;SDS011;68846;53.150;18.136;2023-12-04T11:57:40;36.40;;;16.10;;
79375;SDS011;68846;53.150;18.136;2023-12-04T12:03:07;36.10;;;15.40;;
79375;SDS011;68846;53.150;18.136;2023-12-04T12:05:37;32.10;;;14.30;;
79375;SDS011;68846;53.150;18.136;2023-12-04T12:08:08;33.80;;;15.20;;
79375;SDS011;68846;53.150;18.136;2023-12-04T12:10:37;34.20;;;14.80;;
79375;SDS011;68846;53.150;18.136;2023-12-04T12:13:04;35.20;;;14.50;;
79375;SDS011;68846;53.150;18.136;2023-12-04T12:15:33;38.30;;;15.40;;
79375;SDS011;68846;53.150;18.136;2023-12-04T12:18:01;36.10;;;16.70;;
79375;SDS011;68846;53.150;18.136;2023-12-04T12:20:29;37.80;;;16.30;;
79375;SDS011;68846;53.150;18.136;2023-12-04T12:22:57;37.10;;;15.60;;
79375;SDS011;68846;53.150;18.136;2023-12-04T12:25:25;37.40;;;14.90;;
79375;SDS011;68846;53.150;18.136;2023-12-04T12:27:53;36.10;;;16.00;;
79375;SDS011;68846;53.150;18.136;2023-12-04T12:30:21;36.80;;;17.40;;
79375;SDS011;68846;53.150;18.136;2023-12-04T12:32:50;40.80;;;15.90;;
79375;SDS011;68846;53.150;18.136;2023-12-04T12:35:18;35.00;;;16.10;;
79375;SDS011;68846;53.150;18.136;2023-12-04T12:37:46;37.70;;;16.70;;
79375;SDS011;68846;53.150;18.136;2023-12-04T12:40:14;34.60;;;16.60;;
79375;SDS011;68846;53.150;18.136;2023-12-04T12:42:42;41.00;;;16.30;;
79375;SDS011;68846;53.150;18.136;2023-12-04T12:45:10;39.40;;;16.60;;
79375;SDS011;68846;53.150;18.136;2023-12-04T12:47:42;42.50;;;16.20;;
79375;SDS011;68846;53.150;18.136;2023-12-04T12:50:11;39.50;;;15.10;;
79375;SDS011;68846;53.150;18.136;2023-12-04T12:52:40;35.40;;;15.40;;
79375;SDS011;68846;53.150;18.136;2023-12-04T12:55:08;39.80;;;16.10;;
79375;SDS011;68846;53.150;18.136;2023-12-04T12:57:37;38.40;;;15.70;;
79375;SDS011;68846;53.150;18.136;2023-12-04T13:00:06;37.00;;;15.50;;
79375;SDS011;68846;53.150;18.136;2023-12-04T13:02:37;37.70;;;17.00;;
79375;SDS011;68846;53.150;18.136;2023-12-04T13:05:05;34.80;;;15.00;;
79375;SDS011;68846;53.150;18.136;2023-12-04T13:07:35;31.90;;;15.80;;
79375;SDS011;68846;53.150;18.136;2023-12-04T13:10:03;40.10;;;16.30;;
79375;SDS011;68846;53.150;18.136;2023-12-04T13:12:32;43.40;;;17.20;;
79375;SDS011;68846;53.150;18.136;2023-12-04T13:15:01;40.60;;;17.50;;
79375;SDS011;68846;53.150;18.136;2023-12-04T13:17:29;36.30;;;15.00;;
79375;SDS011;68846;53.150;18.136;2023-12-04T13:19:57;40.70;;;17.10;;
79375;SDS011;68846;53.150;18.136;2023-12-04T13:22:26;36.80;;;16.40;;
79375;SDS011;68846;53.150;18.136;2023-12-04T13:24:55;40.10;;;17.10;;
79375;SDS011;68846;53.150;18.136;2023-12-04T13:27:23;39.60;;;16.10;;
79375;SDS011;68846;53.150;18.136;2023-12-04T13:29:51;39.90;;;17.70;;
79375;SDS011;68846;53.150;18.136;2023-12-04T13:32:18;42.30;;;16.60;;
79375;SDS011;68846;53.150;18.136;2023-12-04T13:34:47;40.00;;;16.10;;
79375;SDS011;68846;53.150;18.136;2023-12-04T13:37:16;40.60;;;16.90;;
79375;SDS011;68846;53.150;18.136;2023-12-04T13:39:44;34.10;;;15.80;;
79375;SDS011;68846;53.150;18.136;2023-12-04T13:42:15;39.40;;;17.20;;
79375;SDS011;68846;53.150;18.136;2023-12-04T13:45:02;40.90;;;16.00;;
79375;SDS011;68846;53.150;18.136;2023-12-04T13:47:31;40.30;;;15.80;;
79375;SDS011;68846;53.150;18.136;2023-12-04T13:50:02;41.40;;;16.30;;
79375;SDS011;68846;53.150;18.136;2023-12-04T13:52:30;40.00;;;16.30;;
79375;SDS011;68846;53.150;18.136;2023-12-04T13:55:01;43.90;;;16.20;;
79375;SDS011;68846;53.150;18.136;2023-12-04T13:57:38;46.80;;;17.90;;
79375;SDS011;68846;53.150;18.136;2023-12-04T14:00:24;35.20;;;15.80;;
79375;SDS011;68846;53.150;18.136;2023-12-04T14:02:52;39.80;;;15.70;;
79375;SDS011;68846;53.150;18.136;2023-12-04T14:05:20;40.80;;;18.20;;
79375;SDS011;68846;53.150;18.136;2023-12-04T14:07:49;50.90;;;18.30;;
79375;SDS011;68846;53.150;18.136;2023-12-04T14:10:17;35.30;;;17.00;;
79375;SDS011;68846;53.150;18.136;2023-12-04T14:12:45;44.80;;;17.20;;
79375;SDS011;68846;53.150;18.136;2023-12-04T14:15:14;45.60;;;17.80;;
79375;SDS011;68846;53.150;18.136;2023-12-04T14:17:42;39.80;;;17.60;;
79375;SDS011;68846;53.150;18.136;2023-12-04T14:20:10;42.80;;;18.00;;
79375;SDS011;68846;53.150;18.136;2023-12-04T14:22:43;48.70;;;20.10;;
79375;SDS011;68846;53.150;18.136;2023-12-04T14:25:13;44.50;;;19.00;;
79375;SDS011;68846;53.150;18.136;2023-12-04T14:27:41;47.80;;;19.10;;
79375;SDS011;68846;53.150;18.136;2023-12-04T14:30:12;43.60;;;17.60;;
79375;SDS011;68846;53.150;18.136;2023-12-04T14:32:40;44.30;;;18.60;;
79375;SDS011;68846;53.150;18.136;2023-12-04T14:35:08;55.70;;;20.90;;
79375;SDS011;68846;53.150;18.136;2023-12-04T14:37:36;48.20;;;19.60;;
79375;SDS011;68846;53.150;18.136;2023-12-04T14:40:05;52.40;;;21.20;;